createdAt,value
2022-12-08T00:00:19.950Z,2.75
2022-12-08T00:03:08.884Z,2.66
2022-12-08T00:05:57.068Z,2.70
2022-12-08T00:08:43.841Z,2.57
2022-12-08T00:11:13.238Z,2.63
2022-12-08T00:13:42.644Z,2.73
2022-12-08T00:16:13.407Z,2.76
2022-12-08T00:18:42.983Z,2.67
2022-12-08T00:21:13.339Z,2.65
2022-12-08T00:23:42.776Z,2.69
2022-12-08T00:26:11.769Z,2.70
2022-12-08T00:28:41.165Z,2.62
2022-12-08T00:31:10.457Z,2.71
2022-12-08T00:33:39.921Z,2.71
2022-12-08T00:36:09.327Z,2.77
2022-12-08T00:38:40.154Z,2.79
2022-12-08T00:41:10.303Z,2.83
2022-12-08T00:43:39.631Z,2.79
2022-12-08T00:46:08.724Z,2.73
2022-12-08T00:48:38.077Z,2.61
2022-12-08T00:51:07.242Z,2.60
2022-12-08T00:53:36.555Z,2.53
2022-12-08T00:56:07.150Z,2.52
2022-12-08T00:58:36.494Z,2.55
2022-12-08T01:01:11.126Z,2.62
2022-12-08T01:03:40.600Z,2.60
2022-12-08T01:06:09.919Z,2.65
2022-12-08T01:08:39.592Z,2.74
2022-12-08T01:11:12.081Z,2.68
2022-12-08T01:13:41.729Z,2.68
2022-12-08T01:16:11.004Z,2.54
2022-12-08T01:18:40.399Z,2.63
2022-12-08T01:21:09.638Z,2.54
2022-12-08T01:23:39.078Z,2.50
2022-12-08T01:26:10.429Z,2.57
2022-12-08T01:28:39.934Z,2.51
2022-12-08T01:31:12.425Z,2.38
2022-12-08T01:33:41.946Z,2.32
2022-12-08T01:36:11.531Z,2.36
2022-12-08T01:38:40.958Z,2.38
2022-12-08T01:41:11.995Z,2.46
2022-12-08T01:43:52.427Z,2.39
2022-12-08T01:46:21.650Z,2.32
2022-12-08T01:48:51.345Z,2.38
2022-12-08T01:51:20.580Z,2.29
2022-12-08T01:53:49.937Z,2.43
2022-12-08T01:56:22.377Z,2.33
2022-12-08T01:58:53.364Z,2.36
2022-12-08T02:01:22.518Z,2.27
2022-12-08T02:03:53.218Z,2.29
2022-12-08T02:06:22.255Z,2.34
2022-12-08T02:08:51.678Z,2.31
2022-12-08T02:11:22.110Z,2.39
2022-12-08T02:13:51.689Z,2.47
2022-12-08T02:16:24.240Z,2.46
2022-12-08T02:19:29.181Z,2.45
2022-12-08T02:21:48.118Z,2.54
2022-12-08T02:24:19.357Z,2.45
2022-12-08T02:26:56.880Z,2.36
2022-12-08T02:29:33.917Z,2.35
2022-12-08T02:32:08.422Z,2.47
2022-12-08T02:34:39.193Z,2.50
2022-12-08T02:37:09.578Z,2.53
2022-12-08T02:39:40.271Z,2.55
2022-12-08T02:42:10.316Z,2.52
2022-12-08T02:44:40.985Z,2.60
2022-12-08T02:47:10.484Z,2.62
2022-12-08T02:49:41.224Z,2.59
2022-12-08T02:52:30.595Z,2.59
2022-12-08T02:55:00.668Z,2.51
2022-12-08T02:57:31.021Z,2.51
2022-12-08T03:00:08.052Z,2.55
2022-12-08T03:02:41.901Z,2.55
2022-12-08T03:05:15.579Z,2.58
2022-12-08T03:07:46.061Z,2.59
2022-12-08T03:10:17.628Z,2.60
2022-12-08T03:12:47.704Z,2.53
2022-12-08T03:15:17.327Z,2.54
2022-12-08T03:17:47.703Z,2.49
2022-12-08T03:20:19.373Z,2.50
2022-12-08T03:22:48.535Z,2.53
2022-12-08T03:25:18.872Z,2.55
2022-12-08T03:27:47.934Z,2.58
2022-12-08T03:30:17.324Z,2.58
2022-12-08T03:32:48.169Z,2.61
2022-12-08T03:35:19.838Z,2.63
2022-12-08T03:37:48.930Z,2.66
2022-12-08T03:40:20.550Z,2.66
2022-12-08T03:42:51.621Z,2.64
2022-12-08T03:45:21.638Z,2.62
2022-12-08T03:47:50.719Z,2.68
2022-12-08T03:50:23.088Z,2.66
2022-12-08T03:52:52.110Z,2.63
2022-12-08T03:55:22.635Z,2.44
2022-12-08T03:57:51.670Z,2.38
2022-12-08T04:00:21.141Z,2.37
2022-12-08T04:02:50.174Z,2.50
2022-12-08T04:05:19.583Z,2.41
2022-12-08T04:07:50.022Z,2.56
2022-12-08T04:10:19.335Z,2.48
2022-12-08T04:12:48.338Z,2.47
2022-12-08T04:15:17.730Z,2.55
2022-12-08T04:17:46.707Z,2.67
2022-12-08T04:20:16.163Z,2.73
2022-12-08T04:22:45.108Z,2.74
2022-12-08T04:25:16.196Z,2.68
2022-12-08T04:27:45.148Z,2.67
2022-12-08T04:30:14.691Z,2.67
2022-12-08T04:32:47.389Z,2.75
2022-12-08T04:35:17.268Z,2.81
2022-12-08T04:37:46.267Z,2.88
2022-12-08T04:40:17.225Z,2.83
2022-12-08T04:42:46.348Z,2.85
2022-12-08T04:45:15.767Z,2.84
2022-12-08T04:47:44.682Z,2.76
2022-12-08T04:50:14.368Z,2.74
2022-12-08T04:52:43.318Z,2.80
2022-12-08T04:55:12.708Z,2.81
2022-12-08T04:57:43.049Z,2.86
2022-12-08T05:00:13.792Z,2.76
2022-12-08T05:02:42.883Z,2.62
2022-12-08T05:05:12.489Z,2.68
2022-12-08T05:07:41.548Z,2.72
2022-12-08T05:10:11.076Z,2.76
2022-12-08T05:12:40.070Z,2.65
2022-12-08T05:15:11.153Z,2.77
2022-12-08T05:17:40.137Z,2.76
2022-12-08T05:20:10.220Z,2.72
2022-12-08T05:22:39.221Z,2.73
2022-12-08T05:25:08.973Z,2.55
2022-12-08T05:27:38.272Z,2.56
2022-12-08T05:30:08.741Z,2.69
2022-12-08T05:32:39.104Z,2.79
2022-12-08T05:35:08.710Z,2.81
2022-12-08T05:37:37.748Z,2.81
2022-12-08T05:40:07.965Z,2.83
2022-12-08T05:42:37.194Z,2.78
2022-12-08T05:45:07.007Z,2.85
2022-12-08T05:47:36.397Z,2.80
2022-12-08T05:50:08.060Z,2.76
2022-12-08T05:52:37.071Z,2.84
2022-12-08T05:55:06.819Z,2.82
2022-12-08T05:57:35.849Z,2.77
2022-12-08T06:00:05.630Z,2.88
2022-12-08T06:02:35.956Z,2.86
2022-12-08T06:05:05.736Z,2.81
2022-12-08T06:07:36.121Z,2.80
2022-12-08T06:10:06.014Z,2.86
2022-12-08T06:12:35.242Z,2.87
2022-12-08T06:15:04.753Z,2.91
2022-12-08T06:17:33.759Z,2.91
2022-12-08T06:20:03.342Z,2.89
2022-12-08T06:22:32.627Z,2.86
2022-12-08T06:25:06.110Z,2.85
2022-12-08T06:27:38.704Z,2.88
2022-12-08T06:30:08.620Z,2.90
2022-12-08T06:32:37.588Z,2.89
2022-12-08T06:35:07.342Z,2.89
2022-12-08T06:37:36.371Z,2.83
2022-12-08T06:40:08.059Z,2.85
2022-12-08T06:42:47.020Z,2.87
2022-12-08T06:45:17.325Z,2.70
2022-12-08T06:47:46.407Z,2.81
2022-12-08T06:50:15.703Z,2.83
2022-12-08T06:52:58.248Z,2.84
2022-12-08T06:58:22.782Z,2.88
2022-12-08T07:00:52.337Z,2.87
2022-12-08T07:03:21.304Z,2.89
2022-12-08T07:05:50.678Z,2.89
2022-12-08T07:08:19.962Z,2.90
2022-12-08T07:10:50.811Z,2.90
2022-12-08T07:13:19.839Z,2.95
2022-12-08T07:15:49.254Z,2.96
2022-12-08T07:18:18.385Z,2.88
2022-12-08T07:20:47.714Z,2.89
2022-12-08T07:23:16.668Z,2.90
2022-12-08T07:25:46.045Z,2.93
2022-12-08T07:28:16.473Z,2.91
2022-12-08T07:30:45.904Z,2.87
2022-12-08T07:33:15.000Z,2.79
2022-12-08T07:35:49.122Z,2.84
2022-12-08T07:38:18.463Z,2.84
2022-12-08T07:40:47.848Z,2.84
2022-12-08T07:43:18.188Z,2.81
2022-12-08T07:45:47.971Z,2.85
2022-12-08T07:48:17.003Z,2.84
2022-12-08T07:50:46.655Z,2.83
2022-12-08T07:53:15.825Z,2.67
2022-12-08T07:55:45.305Z,2.61
2022-12-08T07:58:14.278Z,2.58
2022-12-08T08:00:45.235Z,2.59
2022-12-08T08:03:14.412Z,2.60
2022-12-08T08:05:44.244Z,2.33
2022-12-08T08:08:13.350Z,2.41
2022-12-08T08:10:42.777Z,2.49
2022-12-08T08:13:11.735Z,2.52
2022-12-08T08:15:41.543Z,2.54
2022-12-08T08:18:11.997Z,2.21
2022-12-08T08:20:41.712Z,2.07
2022-12-08T08:23:10.741Z,2.27
2022-12-08T08:25:40.082Z,2.28
2022-12-08T08:28:09.072Z,2.21
2022-12-08T08:30:38.458Z,2.08
2022-12-08T08:33:07.553Z,2.30
2022-12-08T08:35:38.450Z,2.10
2022-12-08T08:38:07.462Z,1.99
2022-12-08T08:40:36.772Z,2.13
2022-12-08T08:43:06.213Z,2.11
2022-12-08T08:45:35.531Z,2.14
2022-12-08T08:48:04.682Z,2.03
2022-12-08T08:50:37.501Z,2.12
2022-12-08T08:53:08.376Z,2.16
2022-12-08T08:55:39.901Z,2.20
2022-12-08T08:58:09.023Z,2.24
2022-12-08T09:00:38.326Z,2.39
2022-12-08T09:03:07.377Z,2.39
2022-12-08T09:05:36.775Z,2.51
2022-12-08T09:08:05.982Z,2.55
2022-12-08T09:10:36.805Z,2.60
2022-12-08T09:13:05.752Z,2.58
2022-12-08T09:15:35.263Z,2.60
2022-12-08T09:18:06.806Z,2.67
2022-12-08T09:20:36.559Z,2.59
2022-12-08T09:23:05.563Z,2.59
2022-12-08T09:25:36.297Z,2.65
2022-12-08T09:28:07.162Z,2.78
2022-12-08T09:30:36.632Z,2.68
2022-12-08T09:33:05.612Z,2.64
2022-12-08T09:35:35.049Z,2.69
2022-12-08T09:38:04.040Z,2.83
2022-12-08T09:40:33.831Z,2.87
2022-12-08T09:43:05.824Z,2.83
2022-12-08T09:45:35.803Z,2.80
2022-12-08T09:48:06.745Z,2.88
2022-12-08T09:50:36.790Z,2.90
2022-12-08T09:53:07.419Z,2.94
2022-12-08T09:55:38.799Z,3.00
2022-12-08T09:58:11.513Z,3.02
2022-12-08T10:00:40.992Z,3.10
2022-12-08T10:03:16.240Z,3.13
2022-12-08T10:05:48.187Z,3.10
2022-12-08T10:08:20.468Z,3.16
2022-12-08T10:10:51.732Z,3.18
2022-12-08T10:13:23.139Z,3.20
2022-12-08T10:15:54.755Z,3.25
2022-12-08T10:18:25.186Z,3.32
2022-12-08T10:20:54.710Z,3.29
2022-12-08T10:23:29.208Z,3.37
2022-12-08T10:26:00.800Z,3.35
2022-12-08T10:28:31.583Z,3.35
2022-12-08T10:31:01.275Z,3.33
2022-12-08T10:33:32.651Z,3.27
2022-12-08T10:36:03.260Z,3.24
2022-12-08T10:38:32.818Z,3.31
2022-12-08T10:41:05.960Z,3.34
2022-12-08T10:43:37.338Z,3.28
2022-12-08T10:46:11.617Z,3.30
2022-12-08T10:48:48.429Z,3.33
2022-12-08T10:51:24.777Z,3.36
2022-12-08T10:53:53.938Z,3.38
2022-12-08T10:56:25.921Z,3.39
2022-12-08T10:59:07.395Z,3.41
2022-12-08T11:01:37.952Z,3.44
2022-12-08T11:04:10.492Z,3.46
2022-12-08T11:06:40.770Z,3.44
2022-12-08T11:09:23.619Z,3.42
2022-12-08T11:11:53.749Z,3.45
2022-12-08T11:14:25.204Z,3.54
2022-12-08T11:16:55.234Z,3.55
2022-12-08T11:19:27.775Z,3.57
2022-12-08T11:21:57.197Z,3.58
2022-12-08T11:24:29.294Z,3.60
2022-12-08T11:27:01.094Z,3.57
2022-12-08T11:29:32.640Z,3.60
2022-12-08T11:32:02.390Z,3.61
2022-12-08T11:34:32.841Z,3.63
2022-12-08T11:37:02.234Z,3.64
2022-12-08T11:39:31.332Z,3.64
2022-12-08T11:42:00.686Z,3.63
2022-12-08T11:44:32.958Z,3.65
2022-12-08T11:47:02.800Z,3.70
2022-12-08T11:49:33.882Z,3.72
2022-12-08T11:52:05.162Z,3.72
2022-12-08T11:54:34.493Z,3.73
2022-12-08T11:57:04.339Z,3.67
2022-12-08T11:59:35.751Z,3.68
2022-12-08T12:02:05.938Z,3.70
2022-12-08T12:04:37.110Z,3.70
2022-12-08T12:07:12.848Z,3.66
2022-12-08T12:09:45.490Z,3.69
2022-12-08T12:12:18.257Z,3.62
2022-12-08T12:14:52.600Z,3.62
2022-12-08T12:17:24.911Z,3.62
2022-12-08T12:19:53.936Z,3.65
2022-12-08T12:22:23.274Z,3.67
2022-12-08T12:24:52.609Z,3.63
2022-12-08T12:27:23.814Z,3.61
2022-12-08T12:29:56.497Z,3.63
2022-12-08T12:32:26.047Z,3.64
2022-12-08T12:34:55.812Z,3.65
2022-12-08T12:37:25.374Z,3.68
2022-12-08T12:39:56.547Z,3.65
2022-12-08T12:42:36.520Z,3.69
2022-12-08T12:45:21.141Z,3.69
2022-12-08T12:47:55.867Z,3.69
2022-12-08T12:50:44.650Z,3.70
2022-12-08T12:53:34.956Z,3.69
2022-12-08T12:56:04.499Z,3.69
2022-12-08T12:58:42.938Z,3.68
2022-12-08T13:01:30.732Z,3.63
2022-12-08T13:04:06.323Z,3.64
2022-12-08T13:06:37.286Z,3.63
2022-12-08T13:09:07.396Z,3.59
2022-12-08T13:11:49.728Z,3.60
2022-12-08T13:14:33.756Z,3.60
2022-12-08T13:17:06.990Z,3.60
2022-12-08T13:19:37.849Z,3.61
2022-12-08T13:22:21.724Z,3.55
2022-12-08T13:24:51.091Z,3.58
2022-12-08T13:27:30.085Z,3.59
2022-12-08T13:30:17.875Z,3.52
2022-12-08T13:33:17.218Z,3.50
2022-12-08T13:35:48.090Z,3.49
2022-12-08T13:38:17.758Z,3.48
2022-12-08T13:40:47.694Z,3.43
2022-12-08T13:43:19.065Z,3.40
2022-12-08T13:46:52.559Z,3.42
2022-12-08T13:50:32.404Z,3.43
2022-12-08T13:57:18.763Z,3.37
2022-12-08T13:59:48.213Z,3.37
2022-12-08T14:02:18.160Z,3.40
2022-12-08T14:05:17.623Z,3.39
2022-12-08T14:07:38.862Z,3.37
2022-12-08T14:10:09.199Z,3.36
2022-12-08T14:12:38.450Z,3.38
2022-12-08T14:15:08.115Z,3.38
2022-12-08T14:17:37.492Z,3.36
2022-12-08T14:20:08.381Z,3.36
2022-12-08T14:22:40.072Z,3.34
2022-12-08T14:25:11.472Z,3.33
2022-12-08T14:27:40.833Z,3.32
2022-12-08T14:30:14.768Z,3.35
2022-12-08T14:32:44.504Z,3.32
2022-12-08T14:35:16.464Z,3.31
2022-12-08T14:37:47.853Z,3.31
2022-12-08T14:40:23.484Z,3.31
2022-12-08T14:42:53.857Z,3.26
2022-12-08T14:45:22.947Z,3.29
2022-12-08T14:47:52.445Z,3.30
2022-12-08T14:50:51.678Z,3.30
2022-12-08T14:53:22.552Z,3.28
2022-12-08T14:55:52.499Z,3.29
2022-12-08T14:58:24.090Z,3.28
2022-12-08T15:00:54.683Z,3.27
2022-12-08T15:03:24.179Z,3.26
2022-12-08T15:05:53.569Z,3.24
2022-12-08T15:08:24.372Z,3.26
2022-12-08T15:11:08.359Z,3.25
2022-12-08T15:13:37.766Z,3.22
2022-12-08T15:16:21.679Z,3.23
2022-12-08T15:18:52.469Z,3.23
2022-12-08T15:21:21.551Z,3.21
2022-12-08T15:23:52.484Z,3.23
2022-12-08T15:26:22.140Z,3.20
2022-12-08T15:28:51.473Z,3.21
2022-12-08T15:31:20.666Z,3.18
2022-12-08T15:33:50.112Z,3.21
2022-12-08T15:36:19.110Z,3.22
2022-12-08T15:38:48.467Z,3.21
2022-12-08T15:41:18.896Z,3.20
2022-12-08T15:43:48.294Z,3.19
2022-12-08T15:46:17.359Z,3.20
2022-12-08T15:48:46.751Z,3.20
2022-12-08T15:51:15.717Z,3.16
2022-12-08T15:53:45.173Z,3.17
2022-12-08T15:56:29.593Z,3.15
2022-12-08T15:59:00.475Z,3.15
2022-12-08T16:01:29.555Z,3.16
2022-12-08T16:04:27.977Z,3.14
2022-12-08T16:09:38.609Z,3.14
2022-12-08T16:12:25.535Z,3.16
2022-12-08T16:17:45.855Z,3.14
2022-12-08T16:20:15.938Z,3.15
2022-12-08T16:22:54.512Z,3.15
2022-12-08T16:25:41.009Z,3.15
2022-12-08T16:28:52.325Z,3.14
2022-12-08T16:31:13.301Z,3.17
2022-12-08T16:33:43.506Z,3.19
2022-12-08T16:36:13.007Z,3.19
2022-12-08T16:38:42.090Z,3.21
2022-12-08T16:41:42.601Z,3.21
2022-12-08T16:44:11.815Z,3.18
2022-12-08T16:46:42.752Z,3.21
2022-12-08T16:49:11.779Z,3.16
2022-12-08T16:51:41.249Z,3.21
2022-12-08T16:54:10.253Z,3.21
2022-12-08T16:56:40.039Z,3.23
2022-12-08T16:59:09.118Z,3.24
2022-12-08T17:01:38.544Z,3.22
2022-12-08T17:06:58.644Z,3.26
2022-12-08T17:09:28.613Z,3.27
2022-12-08T17:12:03.512Z,3.27
2022-12-08T17:14:33.995Z,3.27
2022-12-08T17:17:03.509Z,3.29
2022-12-08T17:19:34.008Z,3.32
2022-12-08T17:22:03.724Z,3.32
2022-12-08T17:24:32.986Z,3.33
2022-12-08T17:27:04.428Z,3.35
2022-12-08T17:29:33.737Z,3.36
2022-12-08T17:32:03.248Z,3.38
2022-12-08T17:34:34.073Z,3.38
2022-12-08T17:37:03.728Z,3.38
2022-12-08T17:39:32.742Z,3.41
2022-12-08T17:42:02.142Z,3.42
2022-12-08T17:44:31.191Z,3.43
2022-12-08T17:47:00.606Z,3.45
2022-12-08T17:49:30.760Z,3.46
2022-12-08T17:52:01.913Z,3.46
2022-12-08T17:54:31.301Z,3.47
2022-12-08T17:57:00.681Z,3.49
2022-12-08T17:59:30.050Z,3.48
2022-12-08T18:01:59.869Z,3.50
2022-12-08T18:04:29.124Z,3.50
2022-12-08T18:07:00.451Z,3.50
2022-12-08T18:09:32.885Z,3.53
2022-12-08T18:12:02.374Z,3.59
2022-12-08T18:14:31.379Z,3.55
2022-12-08T18:17:00.874Z,3.57
2022-12-08T18:19:29.961Z,3.58
2022-12-08T18:21:59.363Z,3.61
2022-12-08T18:24:29.240Z,3.59
2022-12-08T18:27:00.072Z,3.63
2022-12-08T18:29:29.171Z,3.61
2022-12-08T18:31:58.503Z,3.61
2022-12-08T18:34:27.556Z,3.63
2022-12-08T18:36:56.901Z,3.63
2022-12-08T18:39:26.230Z,3.61
2022-12-08T18:41:55.778Z,3.58
2022-12-08T18:44:26.450Z,3.58
2022-12-08T18:46:55.893Z,3.58
2022-12-08T18:49:25.073Z,3.53
2022-12-08T18:51:54.369Z,3.57
2022-12-08T18:54:37.011Z,3.57
2022-12-08T18:57:12.761Z,3.55
2022-12-08T18:59:43.177Z,3.53
2022-12-08T19:02:12.653Z,3.52
2022-12-08T19:04:42.294Z,3.56
2022-12-08T19:07:11.777Z,3.54
2022-12-08T19:09:42.209Z,3.54
2022-12-08T19:12:13.065Z,3.55
2022-12-08T19:14:43.519Z,3.57
2022-12-08T19:17:13.053Z,3.58
2022-12-08T19:19:42.078Z,3.59
2022-12-08T19:22:12.397Z,3.57
2022-12-08T19:24:41.419Z,3.55
2022-12-08T19:27:10.989Z,3.57
2022-12-08T19:29:40.015Z,3.58
2022-12-08T19:32:10.781Z,3.57
2022-12-08T19:34:39.807Z,3.58
2022-12-08T19:37:12.632Z,3.58
2022-12-08T19:39:59.412Z,3.55
2022-12-08T19:42:46.423Z,3.47
2022-12-08T19:45:16.086Z,3.49
2022-12-08T19:47:46.918Z,3.51
2022-12-08T19:50:34.186Z,3.51
2022-12-08T19:53:03.666Z,3.53
2022-12-08T19:55:32.776Z,3.52
2022-12-08T19:58:02.996Z,3.52
2022-12-08T20:00:32.345Z,3.51
2022-12-08T20:03:03.852Z,3.51
2022-12-08T20:05:33.388Z,3.53
2022-12-08T20:08:02.943Z,3.53
2022-12-08T20:10:33.846Z,3.53
2022-12-08T20:13:20.716Z,3.46
2022-12-08T20:15:50.030Z,3.42
2022-12-08T20:18:21.036Z,3.45
2022-12-08T20:20:50.252Z,3.45
2022-12-08T20:23:19.701Z,3.40
2022-12-08T20:25:48.878Z,3.37
2022-12-08T20:28:19.139Z,3.34
2022-12-08T20:30:49.238Z,3.31
2022-12-08T20:33:20.642Z,3.26
2022-12-08T20:35:51.585Z,3.19
2022-12-08T20:38:24.212Z,3.14
2022-12-08T20:40:53.465Z,3.06
2022-12-08T20:43:22.862Z,2.99
2022-12-08T20:45:52.048Z,2.84
2022-12-08T20:48:23.000Z,2.81
2022-12-08T20:50:52.400Z,2.80
2022-12-08T20:53:21.901Z,2.70
2022-12-08T20:55:51.149Z,2.52
2022-12-08T20:58:20.913Z,2.61
2022-12-08T21:00:50.218Z,2.68
2022-12-08T21:03:19.861Z,2.65
2022-12-08T21:05:51.375Z,2.52
2022-12-08T21:08:21.002Z,2.63
2022-12-08T21:10:54.409Z,2.69
2022-12-08T21:13:23.884Z,2.72
2022-12-08T21:15:53.037Z,2.72
2022-12-08T21:18:22.712Z,2.72
2022-12-08T21:20:53.514Z,2.71
2022-12-08T21:23:23.014Z,2.77
2022-12-08T21:25:52.340Z,2.74
2022-12-08T21:28:21.846Z,2.78
2022-12-08T21:30:51.041Z,2.78
2022-12-08T21:33:20.568Z,2.82
2022-12-08T21:35:49.872Z,2.81
2022-12-08T21:38:20.936Z,2.81
2022-12-08T21:40:50.120Z,2.80
2022-12-08T21:43:19.793Z,2.80
2022-12-08T21:45:48.819Z,2.77
2022-12-08T21:48:18.546Z,2.76
2022-12-08T21:50:47.800Z,2.71
2022-12-08T21:53:17.217Z,2.68
2022-12-08T21:55:48.041Z,2.69
2022-12-08T21:58:17.649Z,2.72
2022-12-08T22:00:46.740Z,2.76
2022-12-08T22:03:16.656Z,2.75
2022-12-08T22:05:45.748Z,2.73
2022-12-08T22:08:15.354Z,2.74
2022-12-08T22:10:49.316Z,2.70
2022-12-08T22:13:18.880Z,2.74
2022-12-08T22:15:56.220Z,2.74
2022-12-08T22:18:26.293Z,2.77
2022-12-08T22:20:55.346Z,2.76
2022-12-08T22:23:24.715Z,2.75
2022-12-08T22:25:59.259Z,2.73
2022-12-08T22:28:32.282Z,2.73
2022-12-08T22:31:01.348Z,2.77
2022-12-08T22:33:30.893Z,2.69
2022-12-08T22:36:04.748Z,2.65
2022-12-08T22:38:37.858Z,2.65
2022-12-08T22:41:08.424Z,2.63
2022-12-08T22:43:38.158Z,2.64
2022-12-08T22:46:12.145Z,2.60
2022-12-08T22:48:42.220Z,2.55
2022-12-08T22:51:11.347Z,2.47
2022-12-08T22:53:40.772Z,2.35
2022-12-08T22:56:12.678Z,2.39
2022-12-08T22:58:42.418Z,2.23
2022-12-08T23:01:18.165Z,2.23
2022-12-08T23:03:47.867Z,2.11
2022-12-08T23:06:17.068Z,2.14
2022-12-08T23:08:46.724Z,2.10
2022-12-08T23:11:17.177Z,2.03
2022-12-08T23:13:46.672Z,1.78
2022-12-08T23:16:15.745Z,1.37
2022-12-08T23:18:45.853Z,1.43
2022-12-08T23:21:33.078Z,1.56
2022-12-08T23:24:19.695Z,1.40
2022-12-08T23:27:14.174Z,1.33
2022-12-08T23:29:43.505Z,1.15
2022-12-08T23:32:12.531Z,0.99
2022-12-08T23:34:41.919Z,0.85
2022-12-08T23:37:10.800Z,1.03
2022-12-08T23:39:40.033Z,1.20
2022-12-08T23:42:08.989Z,1.22
2022-12-08T23:44:39.692Z,1.29
2022-12-08T23:47:08.667Z,1.23
2022-12-08T23:49:37.985Z,0.98
2022-12-08T23:52:06.893Z,1.07
2022-12-08T23:54:36.511Z,0.97
2022-12-08T23:57:05.401Z,0.91
2022-12-08T23:59:34.869Z,0.90
